Amistad, NM

11:29 AM MDT on October 25, 2014 (GMT -0600)
3B Farms | Change Station
CLOSE
Current Station
Personal Weather Station
Location: Dalhart, TX
Elevation: 4386 ft
Nearby Weather Stations

Elev 4386 ft 36.13 °N, 102.93 °W | Updated 7 minutes ago

Clear
Clear
76.5 °F
Feels Like 78 °F
N
3.0
Wind Variable Wind from SSW

Today
High -- | Low -- °F
--% Chance of Precip.
Yesterday
High -- | Low -- °F
Precip. -- in
7:08 AM 6:04 PM
Waxing Crescent, 4% visible
Pressure 30.06 in
Visibility 10.0 miles
Clouds Clear
Heat Index 78 °F
Dew Point 44 °F
Humidity 32%
Rainfall 0.00 in
Snow Depth Not available.
UV 5 out of 12
Pollen 6.50 out of 12
Air Quality Not available.
Flu Activity Sporadic
METAR KDHT 251653Z AUTO 21006KT 10SM CLR 24/05 A3019 RMK AO2 SLP179 T02390050

More Conditions Fewer Conditions

Pressure 30.06 in
Visibility 10.0 miles
Clouds Clear
Heat Index 78 °F
Dew Point 44 °F
Humidity 32%
Rainfall 0.00 in
Snow Depth Not available.
UV 5 out of 12
Pollen 6.50 out of 12
Air Quality Not available.
Flu Activity Sporadic
METAR KDHT 251653Z AUTO 21006KT 10SM CLR 24/05 A3019 RMK AO2 SLP179 T02390050

More Conditions Fewer Conditions

10-Day Weather Forecast

Almanac

Astronomy

Oct. 25, 2014 Rise Set
Actual Time 7:08 AM MDT 6:04 PM MDT
Civil Twilight 6:42 AM MDT 6:30 PM MDT
Nautical Twilight 6:12 AM MDT 7:00 PM MDT
Astronomical Twilight 5:42 AM MDT 7:30 PM MDT
Moon 8:47 AM MDT 7:31 PM MDT
Length of Visible Light 11h 48m
Length of Day
10h 56m
Tomorrow will be 2m 5s shorter.
Waxing Crescent, 4% of the Moon is Illuminated
Today
Waxing Crescent
Oct 30
First Quarter
Nov 6
Full
Nov 14
Last Quarter
Nov 22
New

Today's Extremes

State Highs State Lows

Community

WunderPhotos

Upload Photos

1,764,918 photos uploaded!

Nearby

Snow Depth

Station Depth Elevation
Red River Pass #2 0 in 9850 ft
North Costilla 0 in 10600 ft
Elk Cabin 0 in 8210 ft
Santa Fe 0 in 11445 ft
Quemazon 0 in 9500 ft

Earthquake Activity

City Distance Mag. Time & Date
No recent earthquake activity has been reported nearby.
Minimum magnitude displayed is 2.5.

Coastal Water Temperatures

Place Temperature
No Stations Reporting

Nearby Weather Stations